Zenith Leader — 2ACU6 — position and weather

sailwx.info

Track history (hours):
 
Tides and Currents Weather Stations Pressure Air Temp Water Temp Dewpoint Dewpoint Depression Visibility Wind Speed Wind Dir Waves Ship Positions

Zenith Leader

Last reported at 2017-Feb-27 17:33 UTC. Time now 2017-Feb-27 18:10 UTC.
Position N 37°56' E 015°37'.

Length 200 m; draft 8.5 m.

Type: Cargo ship. MMSI: 235058697.

Date/timePositionNaut miles runAvg speedWind from/ knotsBaromVisibWave heightAir tempDewpointWater temp
2017-Feb-27 17:33N 37°56' E 015°37'1615.9
2017-Feb-27 16:34N 37°47' E 015°54'1616.0
2017-Feb-27 15:34N 37°43' E 016°13'35813.5
2017-Feb-26 13:06N 37°30' E 023°44'916.1
2017-Feb-26 12:34N 37°39' E 023°43'1414.5
2017-Feb-26 11:34N 37°52' E 023°37'5 5.1
2017-Feb-26 10:33N 37°58' E 023°36'0 0.0
2017-Feb-26 09:33N 37°58' E 023°36'0 0.0
2017-Feb-26 08:33N 37°58' E 023°36'0 0.0
2017-Feb-26 07:33N 37°58' E 023°36'0 0.0
2017-Feb-26 06:33N 37°58' E 023°36'1 1.0
2017-Feb-26 05:34N 37°57' E 023°36'3 2.5
2017-Feb-26 04:34N 37°54' E 023°35'2 2.1
2017-Feb-26 03:34N 37°52' E 023°36'8 8.1
2017-Feb-26 02:34N 37°46' E 023°43'1414.1
2017-Feb-26 01:33N 37°33' E 023°49'18 4.4
2017-Feb-25 21:33N 37°18' E 024°02'8 3.5
2017-Feb-25 19:19N 37°10' E 023°60'  
Track history (hours):
 
Tides and Currents Weather Stations Pressure Air Temp Water Temp Dewpoint Dewpoint Depression Visibility Wind Speed Wind Dir Waves Ship Positions

Zenith Leader

Last reported at 2017-Feb-27 17:33 UTC. Time now 2017-Feb-27 18:10 UTC.
Position N 37°56' E 015°37'.

Length 200 m; draft 8.5 m.

Type: Cargo ship. MMSI: 235058697.

Date/timePositionNaut miles runAvg speedWind from/ knotsBaromVisibWave heightAir tempDewpointWater temp
2017-Feb-27 17:33N 37°56' E 015°37'1615.9
2017-Feb-27 16:34N 37°47' E 015°54'1616.0
2017-Feb-27 15:34N 37°43' E 016°13'35813.5
2017-Feb-26 13:06N 37°30' E 023°44'916.1
2017-Feb-26 12:34N 37°39' E 023°43'1414.5
2017-Feb-26 11:34N 37°52' E 023°37'5 5.1
2017-Feb-26 10:33N 37°58' E 023°36'0 0.0
2017-Feb-26 09:33N 37°58' E 023°36'0 0.0
2017-Feb-26 08:33N 37°58' E 023°36'0 0.0
2017-Feb-26 07:33N 37°58' E 023°36'0 0.0
2017-Feb-26 06:33N 37°58' E 023°36'1 1.0
2017-Feb-26 05:34N 37°57' E 023°36'3 2.5
2017-Feb-26 04:34N 37°54' E 023°35'2 2.1
2017-Feb-26 03:34N 37°52' E 023°36'8 8.1
2017-Feb-26 02:34N 37°46' E 023°43'1414.1
2017-Feb-26 01:33N 37°33' E 023°49'18 4.4
2017-Feb-25 21:33N 37°18' E 024°02'8 3.5
2017-Feb-25 19:19N 37°10' E 023°60'  

Dump ship's entire track history